createdAt,value
2023-03-17T00:00:23.504Z,3.25
2023-03-17T00:02:50.144Z,3.19
2023-03-17T00:05:20.026Z,3.12
2023-03-17T00:07:47.270Z,3.15
2023-03-17T00:10:18.030Z,3.09
2023-03-17T00:12:45.915Z,3.24
2023-03-17T00:15:13.463Z,3.22
2023-03-17T00:17:40.231Z,3.21
2023-03-17T00:20:13.423Z,3.19
2023-03-17T00:22:39.923Z,3.16
2023-03-17T00:25:19.788Z,3.15
2023-03-17T00:27:46.196Z,3.15
2023-03-17T00:30:13.004Z,2.97
2023-03-17T00:32:40.090Z,3.11
2023-03-17T00:35:15.904Z,3.08
2023-03-17T00:37:42.533Z,3.01
2023-03-17T00:40:14.405Z,3.07
2023-03-17T00:42:42.134Z,3.04
2023-03-17T00:45:09.112Z,3.02
2023-03-17T00:47:35.616Z,3.00
2023-03-17T00:50:02.118Z,3.01
2023-03-17T00:52:32.785Z,2.99
2023-03-17T00:54:59.282Z,2.82
2023-03-17T00:57:27.995Z,2.99
2023-03-17T00:59:55.911Z,2.95
2023-03-17T01:02:27.857Z,2.99
2023-03-17T01:05:05.429Z,2.95
2023-03-17T01:07:37.287Z,2.97
2023-03-17T01:10:10.907Z,2.97
2023-03-17T01:12:37.311Z,2.97
2023-03-17T01:15:06.911Z,2.94
2023-03-17T01:17:33.714Z,3.01
2023-03-17T01:20:01.893Z,2.99
2023-03-17T01:22:28.331Z,3.02
2023-03-17T01:24:54.803Z,3.01
2023-03-17T01:27:21.247Z,3.00
2023-03-17T01:29:47.651Z,2.96
2023-03-17T01:32:15.429Z,2.96
2023-03-17T01:34:41.800Z,3.00
2023-03-17T01:37:08.343Z,3.01
2023-03-17T01:39:34.941Z,2.97
2023-03-17T01:42:01.445Z,3.00
2023-03-17T01:44:27.993Z,2.93
2023-03-17T01:46:54.495Z,2.91
2023-03-17T01:49:31.483Z,2.91
2023-03-17T01:52:06.016Z,2.97
2023-03-17T01:54:39.459Z,2.95
2023-03-17T01:57:10.780Z,2.97
2023-03-17T01:59:43.458Z,3.00
2023-03-17T02:02:12.701Z,2.96
2023-03-17T02:04:42.172Z,2.92
2023-03-17T02:07:09.656Z,2.97
2023-03-17T02:09:40.780Z,2.94
2023-03-17T02:12:09.245Z,2.95
2023-03-17T02:14:35.868Z,2.92
2023-03-17T02:17:02.314Z,2.91
2023-03-17T02:19:28.915Z,2.86
2023-03-17T02:22:05.908Z,2.94
2023-03-17T02:24:37.083Z,2.98
2023-03-17T02:27:10.471Z,2.96
2023-03-17T02:29:37.099Z,2.96
2023-03-17T02:32:03.649Z,2.99
2023-03-17T02:34:31.388Z,2.96
2023-03-17T02:37:00.997Z,2.94
2023-03-17T02:39:30.670Z,2.93
2023-03-17T02:41:59.727Z,3.02
2023-03-17T02:44:26.385Z,3.01
2023-03-17T02:46:53.686Z,2.94
2023-03-17T02:49:20.635Z,2.98
2023-03-17T02:51:47.099Z,2.96
2023-03-17T02:54:14.943Z,2.96
2023-03-17T02:56:41.376Z,2.94
2023-03-17T02:59:08.554Z,2.94
2023-03-17T03:01:35.195Z,2.95
2023-03-17T03:04:01.746Z,2.94
2023-03-17T03:06:28.168Z,2.92
2023-03-17T03:08:54.602Z,2.96
2023-03-17T03:11:22.445Z,3.03
2023-03-17T03:13:48.843Z,3.05
2023-03-17T03:16:15.316Z,3.11
2023-03-17T03:18:41.838Z,3.13
2023-03-17T03:21:08.356Z,3.16
2023-03-17T03:23:34.923Z,3.20
2023-03-17T03:26:01.340Z,3.22
2023-03-17T03:28:30.908Z,3.25
2023-03-17T03:31:03.543Z,3.26
2023-03-17T03:33:30.047Z,3.24
2023-03-17T03:35:58.561Z,3.33
2023-03-17T03:38:29.373Z,3.32
2023-03-17T03:40:55.801Z,3.28
2023-03-17T03:43:23.966Z,3.31
2023-03-17T03:45:52.035Z,3.40
2023-03-17T03:48:18.940Z,3.40
2023-03-17T03:50:45.911Z,3.38
2023-03-17T03:53:12.624Z,3.49
2023-03-17T03:55:39.542Z,3.47
2023-03-17T03:58:05.966Z,3.47
2023-03-17T04:00:32.892Z,3.49
2023-03-17T04:03:03.585Z,3.53
2023-03-17T04:05:31.869Z,3.51
2023-03-17T04:07:59.786Z,3.49
2023-03-17T04:10:29.056Z,3.45
2023-03-17T04:12:55.637Z,3.52
2023-03-17T04:15:22.133Z,3.56
2023-03-17T04:17:48.835Z,3.49
2023-03-17T04:20:17.224Z,3.60
2023-03-17T04:22:44.175Z,3.46
2023-03-17T04:25:12.471Z,3.59
2023-03-17T04:27:42.651Z,3.56
2023-03-17T04:30:12.029Z,3.58
2023-03-17T04:32:38.457Z,3.54
2023-03-17T04:35:06.226Z,3.61
2023-03-17T04:37:34.715Z,3.59
2023-03-17T04:40:03.179Z,3.57
2023-03-17T04:42:29.600Z,3.54
2023-03-17T04:44:56.055Z,3.55
2023-03-17T04:47:22.619Z,3.51
2023-03-17T04:49:49.017Z,3.50
2023-03-17T04:52:15.419Z,3.35
2023-03-17T04:54:43.350Z,3.48
2023-03-17T04:57:10.059Z,3.41
2023-03-17T04:59:36.506Z,3.40
2023-03-17T05:02:02.955Z,3.39
2023-03-17T05:04:32.544Z,3.37
2023-03-17T05:06:59.163Z,3.27
2023-03-17T05:09:30.611Z,3.34
2023-03-17T05:12:02.282Z,3.26
2023-03-17T05:14:32.602Z,3.09
2023-03-17T05:16:59.044Z,3.24
2023-03-17T05:19:25.536Z,3.19
2023-03-17T05:21:52.027Z,3.18
2023-03-17T05:24:18.455Z,3.29
2023-03-17T05:26:44.871Z,3.33
2023-03-17T05:29:12.617Z,3.35
2023-03-17T05:31:39.061Z,3.40
2023-03-17T05:34:05.504Z,3.28
2023-03-17T05:36:33.992Z,3.48
2023-03-17T05:39:02.936Z,3.47
2023-03-17T05:41:31.750Z,3.57
2023-03-17T05:43:58.309Z,3.48
2023-03-17T05:46:31.469Z,3.46
2023-03-17T05:49:00.992Z,3.56
2023-03-17T05:51:27.451Z,3.59
2023-03-17T05:54:00.340Z,3.54
2023-03-17T05:56:26.826Z,3.57
2023-03-17T05:58:55.313Z,3.64
2023-03-17T06:01:21.773Z,3.71
2023-03-17T06:03:49.593Z,3.82
2023-03-17T06:06:16.093Z,3.79
2023-03-17T06:08:42.510Z,4.04
2023-03-17T06:11:09.259Z,4.14
2023-03-17T06:13:35.802Z,4.17
2023-03-17T06:16:02.668Z,4.36
2023-03-17T06:18:29.270Z,4.39
2023-03-17T06:20:57.089Z,4.43
2023-03-17T06:23:23.496Z,4.60
2023-03-17T06:25:50.096Z,4.75
2023-03-17T06:28:16.550Z,4.82
2023-03-17T06:30:42.993Z,5.03
2023-03-17T06:33:09.511Z,5.19
2023-03-17T06:35:36.142Z,5.03
2023-03-17T06:38:04.034Z,5.01
2023-03-17T06:40:33.161Z,5.01
2023-03-17T06:43:01.842Z,4.99
2023-03-17T06:45:28.655Z,5.02
2023-03-17T06:47:58.561Z,4.76
2023-03-17T06:50:25.446Z,4.95
2023-03-17T06:52:51.997Z,5.02
2023-03-17T06:55:19.977Z,5.09
2023-03-17T06:57:46.397Z,5.30
2023-03-17T07:00:14.270Z,5.35
2023-03-17T07:02:40.756Z,5.35
2023-03-17T07:05:07.991Z,5.33
2023-03-17T07:07:34.749Z,5.42
2023-03-17T07:10:03.703Z,5.37
2023-03-17T07:12:33.460Z,5.35
2023-03-17T07:15:03.310Z,5.68
2023-03-17T07:17:31.217Z,6.02
2023-03-17T07:19:58.847Z,6.04
2023-03-17T07:22:25.310Z,6.34
2023-03-17T07:24:51.948Z,6.36
2023-03-17T07:27:20.746Z,6.53
2023-03-17T07:29:50.018Z,6.57
2023-03-17T07:32:16.822Z,6.62
2023-03-17T07:34:43.242Z,6.73
2023-03-17T07:37:10.068Z,7.21
2023-03-17T07:39:36.585Z,7.27
2023-03-17T07:42:03.243Z,7.01
2023-03-17T07:44:29.769Z,7.07
2023-03-17T07:47:02.346Z,7.25
2023-03-17T07:49:41.592Z,7.63
2023-03-17T07:52:09.324Z,7.73
2023-03-17T07:54:36.582Z,7.70
2023-03-17T07:57:06.099Z,7.58
2023-03-17T07:59:33.017Z,7.80
2023-03-17T08:02:03.216Z,8.07
2023-03-17T08:04:35.737Z,8.31
2023-03-17T08:07:02.288Z,8.50
2023-03-17T08:09:37.659Z,8.23
2023-03-17T08:12:05.267Z,8.49
2023-03-17T08:14:33.815Z,8.82
2023-03-17T08:17:04.367Z,8.70
2023-03-17T08:19:32.951Z,8.85
2023-03-17T08:22:02.299Z,8.93
2023-03-17T08:24:31.133Z,8.93
2023-03-17T08:27:03.277Z,9.39
2023-03-17T08:29:33.764Z,9.53
2023-03-17T08:32:04.476Z,9.81
2023-03-17T08:34:33.227Z,9.58
2023-03-17T08:37:06.207Z,9.57
2023-03-17T08:39:32.797Z,9.56
2023-03-17T08:42:03.122Z,9.26
2023-03-17T08:44:31.010Z,9.68
2023-03-17T08:47:03.126Z,9.79
2023-03-17T08:49:38.075Z,10.04
2023-03-17T08:52:05.484Z,10.45
2023-03-17T08:54:35.078Z,10.46
2023-03-17T08:57:03.706Z,10.92
2023-03-17T08:59:32.944Z,10.80
2023-03-17T09:02:02.295Z,11.30
2023-03-17T09:04:33.479Z,11.15
2023-03-17T09:07:04.446Z,11.40
2023-03-17T09:09:33.769Z,11.33
2023-03-17T09:12:03.546Z,10.86
2023-03-17T09:14:40.345Z,11.41
2023-03-17T09:17:09.801Z,11.21
2023-03-17T09:19:36.442Z,11.45
2023-03-17T09:22:04.576Z,11.14
2023-03-17T09:24:34.100Z,11.27
2023-03-17T09:27:03.284Z,11.26
2023-03-17T09:29:35.702Z,11.96
2023-03-17T09:32:05.410Z,11.65
2023-03-17T09:34:34.256Z,11.98
2023-03-17T09:37:07.357Z,12.18
2023-03-17T09:39:34.205Z,12.03
2023-03-17T09:42:24.121Z,12.10
2023-03-17T09:45:20.832Z,11.97
2023-03-17T09:48:06.248Z,12.25
2023-03-17T09:50:40.970Z,12.67
2023-03-17T09:53:18.481Z,12.15
2023-03-17T09:56:06.150Z,12.03
2023-03-17T09:58:37.924Z,12.18
2023-03-17T10:01:05.369Z,12.46
2023-03-17T10:03:36.631Z,12.90
2023-03-17T10:06:36.136Z,12.93
2023-03-17T10:09:18.294Z,12.67
2023-03-17T10:11:47.662Z,12.79
2023-03-17T10:14:46.654Z,13.05
2023-03-17T10:17:17.445Z,13.10
2023-03-17T10:19:50.486Z,12.71
2023-03-17T10:22:20.979Z,13.33
2023-03-17T10:25:05.325Z,13.25
2023-03-17T10:27:43.752Z,13.41
2023-03-17T10:30:15.650Z,13.38
2023-03-17T10:32:44.808Z,13.56
2023-03-17T10:35:18.873Z,13.51
2023-03-17T10:38:14.087Z,13.23
2023-03-17T10:40:45.491Z,13.21
2023-03-17T10:43:18.348Z,13.74
2023-03-17T10:46:02.530Z,13.79
2023-03-17T10:48:38.367Z,14.44
2023-03-17T10:51:09.053Z,14.53
2023-03-17T10:53:40.736Z,14.60
2023-03-17T10:56:14.217Z,14.65
2023-03-17T10:58:46.831Z,14.49
2023-03-17T11:01:20.529Z,14.79
2023-03-17T11:03:48.957Z,14.63
2023-03-17T11:06:18.318Z,14.49
2023-03-17T11:08:51.422Z,14.38
2023-03-17T11:11:32.085Z,14.34
2023-03-17T11:14:11.743Z,14.57
2023-03-17T11:16:52.088Z,14.45
2023-03-17T11:19:19.907Z,14.35
2023-03-17T11:21:54.069Z,14.71
2023-03-17T11:24:33.522Z,14.94
2023-03-17T11:27:16.474Z,15.21
2023-03-17T11:33:14.471Z,14.75
2023-03-17T11:35:54.963Z,15.12
2023-03-17T11:38:53.893Z,15.23
2023-03-17T11:41:40.114Z,15.21
2023-03-17T11:44:39.333Z,15.40
2023-03-17T11:47:18.725Z,15.45
2023-03-17T11:49:51.572Z,15.58
2023-03-17T11:52:39.959Z,15.66
2023-03-17T11:55:15.209Z,15.85
2023-03-17T11:57:48.232Z,15.93
2023-03-17T12:00:34.762Z,15.85
2023-03-17T12:03:16.769Z,15.51
2023-03-17T12:05:54.180Z,15.49
2023-03-17T12:08:31.309Z,15.48
2023-03-17T12:11:05.911Z,15.48
2023-03-17T12:13:37.031Z,15.61
2023-03-17T12:16:08.687Z,15.32
2023-03-17T12:18:39.818Z,15.22
2023-03-17T12:21:12.333Z,15.24
2023-03-17T12:23:46.449Z,15.25
2023-03-17T12:26:15.712Z,15.39
2023-03-17T12:28:48.228Z,15.47
2023-03-17T12:31:22.314Z,15.65
2023-03-17T12:34:01.567Z,15.59
2023-03-17T12:36:34.943Z,15.71
2023-03-17T12:39:08.556Z,15.83
2023-03-17T12:41:53.019Z,15.51
2023-03-17T12:44:40.429Z,15.64
2023-03-17T12:47:23.108Z,15.79
2023-03-17T12:50:06.062Z,15.89
2023-03-17T12:52:45.329Z,15.76
2023-03-17T12:55:14.445Z,16.00
2023-03-17T12:57:43.218Z,15.99
2023-03-17T13:00:20.166Z,16.01
2023-03-17T13:02:52.008Z,15.96
2023-03-17T13:05:34.975Z,15.89
2023-03-17T13:08:06.834Z,15.87
2023-03-17T13:10:40.642Z,15.56
2023-03-17T13:13:11.939Z,15.78
2023-03-17T13:16:06.298Z,15.91
2023-03-17T13:19:12.554Z,15.87
2023-03-17T13:21:43.433Z,15.96
2023-03-17T13:24:40.023Z,16.11
2023-03-17T13:27:11.146Z,16.17
2023-03-17T13:29:43.434Z,16.24
2023-03-17T13:32:34.136Z,16.31
2023-03-17T13:35:16.976Z,16.35
2023-03-17T13:38:06.461Z,16.01
2023-03-17T13:40:44.250Z,16.01
2023-03-17T13:43:33.416Z,16.03
2023-03-17T13:46:19.723Z,15.89
2023-03-17T13:48:47.291Z,16.04
2023-03-17T13:51:20.193Z,15.86
2023-03-17T13:53:51.884Z,16.04
2023-03-17T13:56:25.277Z,15.86
2023-03-17T13:59:01.710Z,16.00
2023-03-17T14:01:42.902Z,15.90
2023-03-17T14:04:18.530Z,16.19
2023-03-17T14:06:48.924Z,16.22
2023-03-17T14:09:35.898Z,15.99
2023-03-17T14:12:10.581Z,16.01
2023-03-17T14:14:44.090Z,15.89
2023-03-17T14:17:14.689Z,16.00
2023-03-17T14:19:41.352Z,16.06
2023-03-17T14:22:22.218Z,16.03
2023-03-17T14:24:52.136Z,16.13
2023-03-17T14:27:18.517Z,16.02
2023-03-17T14:29:45.011Z,15.98
2023-03-17T14:32:15.046Z,15.91
2023-03-17T14:34:45.464Z,15.93
2023-03-17T14:37:12.596Z,15.94
2023-03-17T14:39:47.284Z,15.83
2023-03-17T14:42:14.248Z,15.58
2023-03-17T14:44:43.240Z,15.74
2023-03-17T14:47:18.009Z,15.77
2023-03-17T14:49:44.634Z,15.60
2023-03-17T14:52:19.643Z,15.48
2023-03-17T14:54:50.394Z,15.61
2023-03-17T14:57:17.044Z,15.71
2023-03-17T14:59:54.858Z,15.68
2023-03-17T15:02:23.675Z,15.60
2023-03-17T15:04:53.435Z,15.72
2023-03-17T15:07:36.834Z,15.66
2023-03-17T15:10:06.336Z,15.62
2023-03-17T15:12:33.082Z,15.52
2023-03-17T15:15:03.184Z,15.53
2023-03-17T15:17:36.993Z,15.53
2023-03-17T15:20:06.281Z,15.53
2023-03-17T15:22:40.967Z,15.27
2023-03-17T15:25:23.107Z,15.21
2023-03-17T15:27:49.603Z,15.16
2023-03-17T15:30:17.096Z,15.15
2023-03-17T15:32:44.556Z,15.02
2023-03-17T15:35:12.874Z,15.24
2023-03-17T15:37:39.910Z,15.13
2023-03-17T15:40:07.681Z,15.11
2023-03-17T15:42:37.873Z,15.15
2023-03-17T15:45:05.834Z,15.09
2023-03-17T15:47:37.460Z,14.97
2023-03-17T15:50:14.300Z,15.00
2023-03-17T15:52:40.900Z,14.90
2023-03-17T15:55:15.717Z,14.80
2023-03-17T15:57:50.803Z,14.78
2023-03-17T16:00:22.602Z,14.74
2023-03-17T16:02:51.929Z,14.77
2023-03-17T16:05:21.004Z,14.78
2023-03-17T16:07:48.030Z,14.74
2023-03-17T16:10:16.795Z,14.67
2023-03-17T16:12:44.760Z,14.64
2023-03-17T16:15:22.460Z,14.60
2023-03-17T16:17:52.359Z,14.56
2023-03-17T16:20:23.477Z,14.43
2023-03-17T16:22:51.858Z,14.41
2023-03-17T16:25:32.775Z,14.32
2023-03-17T16:28:12.903Z,14.38
2023-03-17T16:30:40.055Z,14.38
2023-03-17T16:33:14.985Z,14.30
2023-03-17T16:35:41.454Z,14.29
2023-03-17T16:38:10.761Z,14.25
2023-03-17T16:40:38.304Z,14.21
2023-03-17T16:43:24.493Z,14.03
2023-03-17T16:45:53.334Z,14.14
2023-03-17T16:48:19.949Z,14.13
2023-03-17T16:50:46.704Z,13.90
2023-03-17T16:53:13.144Z,14.06
2023-03-17T16:55:40.170Z,14.07
2023-03-17T16:58:15.523Z,14.08
2023-03-17T17:00:42.638Z,14.08
2023-03-17T17:03:09.219Z,14.01
2023-03-17T17:05:35.726Z,14.01
2023-03-17T17:08:05.243Z,13.93
2023-03-17T17:10:34.445Z,13.98
2023-03-17T17:13:05.391Z,13.87
2023-03-17T17:15:36.225Z,13.81
2023-03-17T17:18:05.653Z,13.77
2023-03-17T17:20:35.313Z,13.64
2023-03-17T17:23:06.908Z,13.53
2023-03-17T17:25:33.885Z,13.33
2023-03-17T17:28:04.190Z,13.22
2023-03-17T17:30:33.185Z,12.97
2023-03-17T17:33:04.314Z,12.93
2023-03-17T17:35:33.226Z,12.89
2023-03-17T17:38:12.837Z,12.80
2023-03-17T17:40:39.468Z,12.55
2023-03-17T17:43:05.942Z,12.66
2023-03-17T17:45:42.336Z,12.51
2023-03-17T17:48:11.206Z,12.59
2023-03-17T17:50:37.843Z,12.36
2023-03-17T17:53:04.340Z,12.40
2023-03-17T17:55:33.291Z,12.24
2023-03-17T17:58:05.633Z,12.14
2023-03-17T18:00:37.561Z,12.09
2023-03-17T18:03:04.024Z,12.01
2023-03-17T18:05:33.026Z,11.85
2023-03-17T18:08:02.416Z,11.87
2023-03-17T18:10:33.312Z,11.78
2023-03-17T18:13:05.961Z,11.76
2023-03-17T18:15:41.469Z,11.44
2023-03-17T18:18:08.063Z,11.37
2023-03-17T18:20:35.924Z,11.56
2023-03-17T18:23:05.161Z,11.45
2023-03-17T18:25:33.606Z,11.47
2023-03-17T18:28:05.925Z,11.44
2023-03-17T18:30:36.675Z,11.40
2023-03-17T18:33:06.761Z,11.33
2023-03-17T18:35:34.159Z,11.27
2023-03-17T18:38:05.008Z,11.10
2023-03-17T18:40:34.781Z,11.16
2023-03-17T18:43:03.284Z,11.01
2023-03-17T18:45:31.540Z,11.10
2023-03-17T18:48:03.189Z,11.04
2023-03-17T18:50:31.772Z,10.96
2023-03-17T18:53:02.459Z,10.97
2023-03-17T18:55:33.722Z,10.96
2023-03-17T18:58:06.491Z,10.90
2023-03-17T19:00:33.732Z,10.71
2023-03-17T19:03:06.302Z,10.83
2023-03-17T19:05:37.713Z,10.78
2023-03-17T19:08:05.834Z,10.71
2023-03-17T19:10:34.369Z,10.74
2023-03-17T19:13:02.713Z,10.63
2023-03-17T19:15:30.829Z,10.74
2023-03-17T19:18:00.078Z,10.72
2023-03-17T19:20:26.618Z,10.64
2023-03-17T19:23:03.172Z,10.57
2023-03-17T19:25:35.530Z,10.39
2023-03-17T19:28:03.994Z,10.49
2023-03-17T19:30:33.092Z,10.46
2023-03-17T19:32:59.764Z,10.48
2023-03-17T19:35:26.209Z,10.38
2023-03-17T19:38:02.297Z,10.20
2023-03-17T19:40:34.541Z,10.34
2023-03-17T19:43:02.568Z,10.35
2023-03-17T19:45:30.501Z,10.18
2023-03-17T19:48:05.546Z,10.29
2023-03-17T19:50:34.199Z,10.28
2023-03-17T19:53:04.068Z,10.07
2023-03-17T19:55:34.551Z,10.07
2023-03-17T19:58:02.735Z,10.25
2023-03-17T20:00:38.205Z,10.18
2023-03-17T20:03:04.792Z,10.09
2023-03-17T20:05:34.713Z,10.14
2023-03-17T20:08:02.689Z,10.08
2023-03-17T20:10:30.808Z,10.12
2023-03-17T20:13:03.396Z,10.13
2023-03-17T20:15:32.579Z,9.96
2023-03-17T20:18:02.287Z,9.89
2023-03-17T20:20:34.708Z,9.92
2023-03-17T20:23:03.204Z,9.98
2023-03-17T20:25:29.658Z,9.91
2023-03-17T20:28:04.228Z,9.82
2023-03-17T20:30:33.800Z,9.72
2023-03-17T20:33:02.159Z,9.88
2023-03-17T20:35:34.606Z,9.80
2023-03-17T20:38:01.263Z,9.69
2023-03-17T20:40:33.724Z,9.77
2023-03-17T20:43:05.251Z,9.69
2023-03-17T20:45:33.412Z,9.74
2023-03-17T20:48:06.118Z,9.75
2023-03-17T20:50:33.586Z,9.73
2023-03-17T20:53:00.504Z,9.73
2023-03-17T20:55:31.350Z,9.77
2023-03-17T20:58:03.798Z,9.64
2023-03-17T21:00:36.097Z,9.63
2023-03-17T21:03:04.162Z,9.56
2023-03-17T21:05:32.739Z,9.62
2023-03-17T21:08:02.007Z,9.53
2023-03-17T21:10:34.395Z,9.59
2023-03-17T21:13:01.029Z,9.46
2023-03-17T21:15:29.578Z,9.59
2023-03-17T21:17:56.008Z,9.61
2023-03-17T21:20:23.786Z,9.60
2023-03-17T21:22:50.254Z,9.60
2023-03-17T21:25:16.947Z,9.48
2023-03-17T21:27:43.483Z,9.53
2023-03-17T21:30:12.288Z,9.55
2023-03-17T21:32:39.512Z,9.49
2023-03-17T21:35:07.856Z,9.51
2023-03-17T21:37:35.858Z,9.48
2023-03-17T21:40:04.943Z,9.51
2023-03-17T21:42:33.229Z,9.39
2023-03-17T21:45:05.992Z,9.48
2023-03-17T21:47:35.889Z,9.43
2023-03-17T21:50:05.094Z,9.47
2023-03-17T21:52:31.596Z,9.34
2023-03-17T21:55:07.458Z,9.43
2023-03-17T21:57:34.017Z,9.48
2023-03-17T22:00:00.591Z,9.23
2023-03-17T22:02:29.181Z,9.46
2023-03-17T22:04:55.763Z,9.46
2023-03-17T22:07:22.201Z,9.41
2023-03-17T22:09:52.119Z,9.41
2023-03-17T22:12:19.862Z,9.36
2023-03-17T22:14:46.286Z,9.34
2023-03-17T22:17:12.732Z,9.32
2023-03-17T22:19:39.258Z,9.19
2023-03-17T22:22:05.684Z,9.32
2023-03-17T22:24:32.118Z,9.11
2023-03-17T22:27:01.307Z,9.24
2023-03-17T22:29:33.592Z,9.32
2023-03-17T22:32:02.730Z,9.09
2023-03-17T22:34:29.147Z,9.27
2023-03-17T22:36:55.607Z,9.24
2023-03-17T22:39:22.063Z,9.20
2023-03-17T22:41:48.478Z,9.22
2023-03-17T22:44:14.919Z,9.19
2023-03-17T22:46:42.929Z,9.15
2023-03-17T22:49:09.727Z,9.07
2023-03-17T22:51:37.078Z,9.16
2023-03-17T22:54:04.389Z,9.01
2023-03-17T22:56:32.040Z,9.09
2023-03-17T22:59:04.388Z,8.87
2023-03-17T23:01:32.655Z,9.09
2023-03-17T23:04:02.975Z,8.89
2023-03-17T23:06:32.272Z,9.05
2023-03-17T23:09:03.929Z,8.93
2023-03-17T23:11:34.232Z,9.00
2023-03-17T23:14:02.276Z,9.03
2023-03-17T23:16:34.801Z,8.95
2023-03-17T23:19:02.594Z,8.98
2023-03-17T23:21:38.033Z,8.94
2023-03-17T23:24:05.928Z,8.98
2023-03-17T23:26:32.516Z,8.87
2023-03-17T23:29:07.196Z,8.89
2023-03-17T23:31:34.057Z,8.85
2023-03-17T23:34:05.256Z,8.82
2023-03-17T23:36:34.232Z,8.78
2023-03-17T23:39:01.458Z,8.76
2023-03-17T23:41:33.933Z,8.66
2023-03-17T23:44:02.251Z,8.70
2023-03-17T23:46:30.530Z,8.55
2023-03-17T23:49:03.546Z,8.66
2023-03-17T23:51:29.977Z,8.56
2023-03-17T23:54:00.455Z,8.62
2023-03-17T23:56:27.042Z,8.61
2023-03-17T23:59:03.042Z,8.61
